Time;durP1;ratioP1;P1;durP2;ratioP2;P2;SDS_P1;SDS_P2;PMS_P1;PMS_P2;Temp;Humidity;BMP_temperature;BMP_pressure;BME280_temperature;BME280_humidity;BME280_pressure;Samples;Min_cycle;Max_cycle;Signal;HPM_P1;HPM_P2
2023/05/19 00:00:56;;;;;;;3.90;2.40;;;15.00;79.50;;;;;;4985744;28;20086;-54
2023/05/19 00:03:22;;;;;;;5.25;2.70;;;15.00;79.50;;;;;;4986224;28;20038;-53
2023/05/19 00:05:48;;;;;;;3.22;2.40;;;15.00;79.40;;;;;;4985071;28;20034;-54
2023/05/19 00:08:16;;;;;;;3.67;2.33;;;15.00;79.60;;;;;;4967941;28;20065;-54
2023/05/19 00:10:42;;;;;;;4.97;2.75;;;15.00;79.60;;;;;;4983809;28;20085;-54
2023/05/19 00:13:08;;;;;;;3.47;2.33;;;15.00;79.60;;;;;;4983824;28;20400;-54
2023/05/19 00:15:34;;;;;;;5.15;2.58;;;15.00;79.70;;;;;;4985625;28;20093;-54
2023/05/19 00:18:00;;;;;;;4.78;2.55;;;15.00;79.60;;;;;;4984252;28;20034;-54
2023/05/19 00:20:26;;;;;;;3.63;2.25;;;15.00;79.80;;;;;;4983072;28;20037;-52
2023/05/19 00:22:51;;;;;;;4.70;2.25;;;14.90;79.80;;;;;;4984159;28;20118;-54
2023/05/19 00:25:17;;;;;;;8.70;2.63;;;14.90;79.90;;;;;;4985215;28;20054;-54
2023/05/19 00:27:42;;;;;;;4.47;2.30;;;14.90;80.00;;;;;;4983548;28;20027;-54
2023/05/19 00:30:08;;;;;;;3.60;2.42;;;14.90;80.10;;;;;;4984739;28;20040;-53
2023/05/19 00:32:34;;;;;;;5.75;2.33;;;14.90;80.10;;;;;;4966954;28;20041;-54
2023/05/19 00:34:59;;;;;;;2.97;2.30;;;14.90;80.20;;;;;;4984080;28;20031;-54
2023/05/19 00:37:25;;;;;;;4.20;2.20;;;14.90;80.30;;;;;;4985646;28;20023;-54
2023/05/19 00:39:51;;;;;;;3.35;2.20;;;14.90;80.20;;;;;;4982370;28;20113;-54
2023/05/19 00:42:16;;;;;;;3.42;1.92;;;14.90;80.30;;;;;;4983674;28;20041;-54
2023/05/19 00:44:42;;;;;;;5.75;2.53;;;14.90;80.30;;;;;;4983501;28;20086;-54
2023/05/19 00:47:07;;;;;;;3.30;2.13;;;14.90;80.30;;;;;;4985678;28;20433;-54
2023/05/19 00:49:34;;;;;;;6.65;2.03;;;14.90;80.40;;;;;;4983033;28;20055;-54
2023/05/19 00:52:00;;;;;;;3.75;2.10;;;14.80;80.40;;;;;;4986179;28;20035;-54
2023/05/19 00:54:26;;;;;;;2.58;1.85;;;14.80;81.10;;;;;;4983543;28;20041;-54
2023/05/19 00:56:53;;;;;;;3.50;2.08;;;14.80;80.50;;;;;;4967852;28;20312;-54
2023/05/19 00:59:18;;;;;;;4.68;2.20;;;14.80;80.60;;;;;;4983749;28;20054;-54
2023/05/19 01:01:47;;;;;;;6.75;2.38;;;14.80;80.50;;;;;;4972140;28;20487;-54
2023/05/19 01:04:24;;;;;;;5.30;2.40;;;14.80;80.50;;;;;;4979643;28;20042;-54
2023/05/19 01:06:53;;;;;;;3.30;2.00;;;14.80;80.70;;;;;;4969319;28;20027;-54
2023/05/19 01:09:21;;;;;;;2.67;1.92;;;14.80;80.70;;;;;;4984260;28;20043;-54
2023/05/19 01:11:47;;;;;;;5.00;2.10;;;14.80;80.70;;;;;;4969535;28;20067;-53
2023/05/19 01:14:12;;;;;;;5.55;2.25;;;14.80;80.70;;;;;;4986798;28;20027;-54
2023/05/19 01:16:58;;;;;;;3.50;2.50;;;14.80;80.80;;;;;;5003515;28;20037;-54
2023/05/19 01:19:49;;;;;;;5.38;1.90;;;14.70;80.80;;;;;;4977191;28;20057;-54
2023/05/19 01:23:06;;;;;;;2.92;1.90;;;14.80;80.90;;;;;;4968239;29;20035;-54
2023/05/19 01:25:56;;;;;;;2.53;1.85;;;14.70;80.90;;;;;;4947916;29;20028;-54
2023/05/19 01:28:52;;;;;;;4.15;2.05;;;14.70;80.90;;;;;;4967976;29;20031;-54
2023/05/19 01:31:20;;;;;;;4.32;2.22;;;14.70;81.00;;;;;;4968126;29;20050;-54
2023/05/19 01:33:45;;;;;;;3.00;1.90;;;14.70;80.90;;;;;;4979934;28;20035;-54
2023/05/19 01:36:11;;;;;;;3.88;2.15;;;14.70;81.10;;;;;;4978563;28;20085;-54
2023/05/19 01:38:37;;;;;;;2.85;1.80;;;14.70;81.10;;;;;;4987365;28;20416;-54
2023/05/19 01:41:03;;;;;;;2.97;1.90;;;14.70;81.10;;;;;;4987393;28;20459;-54
2023/05/19 01:43:28;;;;;;;4.47;2.30;;;14.70;81.20;;;;;;4987354;28;20090;-54
2023/05/19 01:45:54;;;;;;;4.20;2.00;;;14.70;81.20;;;;;;4987086;28;20391;-54
2023/05/19 01:48:19;;;;;;;5.07;2.42;;;14.70;81.30;;;;;;4986984;28;20031;-54
2023/05/19 01:50:45;;;;;;;5.05;2.40;;;14.70;81.30;;;;;;4970864;28;20031;-54
2023/05/19 01:53:11;;;;;;;4.75;2.58;;;14.60;81.30;;;;;;4985594;28;20034;-54
2023/05/19 01:55:46;;;;;;;3.05;2.20;;;14.60;81.20;;;;;;4987878;28;20050;-54
2023/05/19 01:58:24;;;;;;;5.57;2.90;;;14.70;81.30;;;;;;4986703;28;20360;-54
2023/05/19 02:01:02;;;;;;;4.47;2.22;;;14.60;81.30;;;;;;4986966;28;20087;-54
2023/05/19 02:04:05;;;;;;;4.93;1.90;;;14.60;81.40;;;;;;4987969;28;20111;-54
2023/05/19 02:06:53;;;;;;;4.10;2.50;;;14.60;81.40;;;;;;4986397;28;20065;-54
2023/05/19 02:09:39;;;;;;;4.20;2.20;;;14.60;81.50;;;;;;4986534;28;20046;-54
2023/05/19 02:12:24;;;;;;;4.65;2.10;;;14.60;81.70;;;;;;4959524;28;20082;-54
2023/05/19 02:15:01;;;;;;;8.48;2.45;;;14.60;81.70;;;;;;4987902;28;20173;-54
2023/05/19 02:17:26;;;;;;;3.33;2.30;;;14.60;81.70;;;;;;4986255;28;20034;-54
2023/05/19 02:19:52;;;;;;;3.70;2.45;;;14.60;81.90;;;;;;4985511;28;20065;-54
2023/05/19 02:22:17;;;;;;;3.30;2.20;;;14.60;81.80;;;;;;4985869;28;20169;-54
2023/05/19 02:24:43;;;;;;;5.00;2.55;;;14.60;81.80;;;;;;4986846;28;20197;-54
2023/05/19 02:27:09;;;;;;;4.55;2.38;;;14.60;81.90;;;;;;4985129;28;20094;-54
2023/05/19 02:29:35;;;;;;;2.92;2.35;;;14.60;82.00;;;;;;4987276;28;20046;-54
2023/05/19 02:32:00;;;;;;;3.28;2.40;;;14.50;82.00;;;;;;4985640;28;20053;-54
2023/05/19 02:34:26;;;;;;;4.32;2.60;;;14.50;82.10;;;;;;4986515;28;20031;-54
2023/05/19 02:36:52;;;;;;;2.90;2.53;;;14.50;82.20;;;;;;4986691;28;20030;-54
2023/05/19 02:39:18;;;;;;;4.93;3.25;;;14.50;82.30;;;;;;4986723;28;20035;-54
2023/05/19 02:41:43;;;;;;;3.22;2.72;;;14.50;82.50;;;;;;4985045;28;20119;-54
2023/05/19 02:44:09;;;;;;;5.07;3.05;;;14.50;82.50;;;;;;4984917;28;20031;-54
2023/05/19 02:46:35;;;;;;;5.55;3.13;;;14.50;82.60;;;;;;4985345;28;20058;-54
2023/05/19 02:49:00;;;;;;;3.72;2.83;;;14.50;82.60;;;;;;4986809;28;20051;-54
2023/05/19 02:51:26;;;;;;;3.80;2.83;;;14.40;82.60;;;;;;4985450;28;20367;-54
2023/05/19 02:53:51;;;;;;;3.45;2.53;;;14.50;82.70;;;;;;4987001;28;20059;-54
2023/05/19 02:56:17;;;;;;;4.70;2.95;;;14.40;82.80;;;;;;5001035;28;20042;-54
2023/05/19 02:58:42;;;;;;;5.07;2.17;;;14.40;82.80;;;;;;4985900;28;20095;-54
2023/05/19 03:01:08;;;;;;;5.72;2.63;;;14.40;82.90;;;;;;4986830;28;20046;-54
2023/05/19 03:03:34;;;;;;;4.75;2.78;;;14.40;82.90;;;;;;4985353;28;20039;-54
2023/05/19 03:06:00;;;;;;;3.45;2.38;;;14.40;83.00;;;;;;4965902;28;20035;-54
2023/05/19 03:08:26;;;;;;;5.32;2.85;;;14.40;83.00;;;;;;4968616;28;20031;-54
2023/05/19 03:10:52;;;;;;;4.45;2.63;;;14.40;83.10;;;;;;4987890;28;20138;-54
2023/05/19 03:13:17;;;;;;;5.80;2.60;;;14.40;83.20;;;;;;4989269;28;20107;-54
2023/05/19 03:15:43;;;;;;;4.20;2.63;;;14.40;83.20;;;;;;4984719;28;20038;-54
2023/05/19 03:18:10;;;;;;;5.32;2.92;;;14.40;83.30;;;;;;4965947;28;20027;-54
2023/05/19 03:20:37;;;;;;;3.20;2.10;;;14.40;83.50;;;;;;4969403;28;20034;-54
2023/05/19 03:23:02;;;;;;;4.80;2.30;;;14.40;83.50;;;;;;4985396;28;20079;-54
2023/05/19 03:25:28;;;;;;;4.68;2.42;;;14.30;83.60;;;;;;4983221;28;20038;-54
2023/05/19 03:27:54;;;;;;;5.10;3.55;;;14.30;83.80;;;;;;4985345;28;20031;-54
2023/05/19 03:30:20;;;;;;;3.53;2.65;;;14.30;83.80;;;;;;4984393;28;20467;-54
2023/05/19 03:32:45;;;;;;;6.10;2.83;;;14.30;84.00;;;;;;4984238;28;20059;-54
2023/05/19 03:35:11;;;;;;;4.13;2.65;;;14.20;84.10;;;;;;4984483;28;20061;-54
2023/05/19 03:37:36;;;;;;;8.45;3.20;;;14.30;84.30;;;;;;4986416;28;20056;-54
2023/05/19 03:40:04;;;;;;;12.48;4.65;;;14.20;84.40;;;;;;4985211;28;20034;-54
2023/05/19 03:42:29;;;;;;;65.25;9.15;;;14.20;84.40;;;;;;4969095;28;20118;-54
2023/05/19 03:44:55;;;;;;;47.60;9.00;;;14.20;84.50;;;;;;4986438;28;20042;-54
2023/05/19 03:47:20;;;;;;;29.55;6.18;;;14.20;84.60;;;;;;4986188;28;20029;-54
2023/05/19 03:49:46;;;;;;;21.50;5.18;;;14.20;84.60;;;;;;4986331;28;20109;-54
2023/05/19 03:52:11;;;;;;;14.73;4.80;;;14.20;84.60;;;;;;4983980;28;20031;-54
2023/05/19 03:54:38;;;;;;;16.05;4.82;;;14.20;84.70;;;;;;4983626;28;20035;-54
2023/05/19 03:57:04;;;;;;;26.92;4.78;;;14.20;84.70;;;;;;4985972;28;20035;-54
2023/05/19 03:59:30;;;;;;;22.75;4.95;;;14.20;84.80;;;;;;4984754;28;20027;-54
2023/05/19 04:01:56;;;;;;;17.52;5.28;;;14.20;84.80;;;;;;4968214;28;20053;-54
2023/05/19 04:04:22;;;;;;;23.98;4.68;;;14.20;84.90;;;;;;4968177;28;20103;-54
2023/05/19 04:06:47;;;;;;;18.92;4.88;;;14.20;84.90;;;;;;4984383;28;20039;-54
2023/05/19 04:09:13;;;;;;;30.60;5.00;;;14.10;84.90;;;;;;4985997;28;20054;-54
2023/05/19 04:11:39;;;;;;;16.50;3.88;;;14.10;84.90;;;;;;4983492;28;20026;-54
2023/05/19 04:14:05;;;;;;;12.43;3.95;;;14.20;85.10;;;;;;4984831;28;20038;-54
2023/05/19 04:16:31;;;;;;;17.25;4.20;;;14.10;85.30;;;;;;4983920;28;20098;-54
2023/05/19 04:18:57;;;;;;;16.90;5.28;;;14.10;85.60;;;;;;4984619;28;20107;-54
2023/05/19 04:21:22;;;;;;;12.38;5.97;;;14.10;85.90;;;;;;4983439;28;20085;-54
2023/05/19 04:23:48;;;;;;;15.80;5.20;;;14.10;85.90;;;;;;4984375;28;20038;-54
2023/05/19 04:26:14;;;;;;;14.00;4.18;;;14.00;85.90;;;;;;4985536;28;20081;-54
2023/05/19 04:28:41;;;;;;;9.82;4.20;;;14.00;85.90;;;;;;4968361;28;20034;-54
2023/05/19 04:31:09;;;;;;;11.95;4.40;;;14.00;86.10;;;;;;4984433;28;20173;-54
2023/05/19 04:33:35;;;;;;;15.73;4.55;;;14.00;86.10;;;;;;4982013;28;20024;-54
2023/05/19 04:36:04;;;;;;;13.70;4.90;;;14.00;86.20;;;;;;4985889;28;20037;-54
2023/05/19 04:38:30;;;;;;;19.13;4.97;;;14.00;86.10;;;;;;4985460;28;20175;-54
2023/05/19 04:40:55;;;;;;;8.73;4.47;;;14.00;86.10;;;;;;4984593;28;20023;-54
2023/05/19 04:43:21;;;;;;;11.40;4.63;;;14.00;86.20;;;;;;4984125;28;20027;-54
2023/05/19 04:45:49;;;;;;;10.15;4.75;;;14.10;86.30;;;;;;4986582;28;20037;-54
2023/05/19 04:48:14;;;;;;;16.77;5.20;;;14.00;86.20;;;;;;5004026;28;20035;-54
2023/05/19 04:50:41;;;;;;;12.15;4.60;;;14.00;86.10;;;;;;4987739;28;20514;-54
2023/05/19 04:53:08;;;;;;;17.60;5.03;;;14.10;86.20;;;;;;4987810;28;20031;-54
2023/05/19 04:55:33;;;;;;;10.65;4.70;;;14.00;86.30;;;;;;4987273;28;20027;-54
2023/05/19 04:57:59;;;;;;;11.10;3.97;;;14.00;86.30;;;;;;4970812;28;20039;-54
2023/05/19 05:00:24;;;;;;;13.63;4.72;;;14.00;86.50;;;;;;4987473;28;20072;-54
2023/05/19 05:02:50;;;;;;;7.30;4.18;;;14.10;86.70;;;;;;4986936;28;20409;-53
2023/05/19 05:05:15;;;;;;;10.38;3.92;;;14.10;87.60;;;;;;4988130;28;20026;-54
2023/05/19 05:07:41;;;;;;;9.50;3.35;;;14.00;87.30;;;;;;4988718;28;20077;-54
2023/05/19 05:10:08;;;;;;;5.40;3.33;;;14.00;87.40;;;;;;4986074;28;20055;-54
2023/05/19 05:12:34;;;;;;;8.73;3.70;;;14.10;87.40;;;;;;4970202;28;20026;-53
2023/05/19 05:15:00;;;;;;;9.38;3.17;;;14.10;87.20;;;;;;4986126;28;20038;-54
2023/05/19 05:17:27;;;;;;;6.05;2.97;;;14.10;87.20;;;;;;4986241;28;20098;-54
2023/05/19 05:19:52;;;;;;;6.13;3.47;;;14.10;87.20;;;;;;4987782;28;20094;-54
2023/05/19 05:22:18;;;;;;;7.25;3.13;;;14.10;87.10;;;;;;4986299;28;20031;-54
2023/05/19 05:24:44;;;;;;;6.57;3.03;;;14.10;87.00;;;;;;4987702;28;20483;-53
2023/05/19 05:27:10;;;;;;;5.65;2.97;;;14.10;86.90;;;;;;4987810;28;20090;-54
2023/05/19 05:29:35;;;;;;;9.43;3.60;;;14.10;86.90;;;;;;4969773;28;20063;-54
2023/05/19 05:32:01;;;;;;;6.55;3.05;;;14.10;86.80;;;;;;5004797;28;20035;-54
2023/05/19 05:34:27;;;;;;;5.55;3.10;;;14.10;86.80;;;;;;4987059;28;20022;-54
2023/05/19 05:36:52;;;;;;;5.25;2.67;;;14.10;86.70;;;;;;4986847;28;20091;-54
2023/05/19 05:39:18;;;;;;;5.15;2.80;;;14.10;86.70;;;;;;4987020;28;20049;-54
2023/05/19 05:41:43;;;;;;;4.75;2.83;;;14.10;86.70;;;;;;4986644;28;20038;-54
2023/05/19 05:44:09;;;;;;;5.35;2.75;;;14.10;86.70;;;;;;4985703;28;20039;-54
2023/05/19 05:46:34;;;;;;;3.20;2.10;;;14.10;86.70;;;;;;4986545;28;20081;-54
2023/05/19 05:49:00;;;;;;;6.00;2.60;;;14.10;86.80;;;;;;4986550;28;20039;-54
2023/05/19 05:51:26;;;;;;;5.20;2.80;;;14.00;86.80;;;;;;5018228;28;20027;-54
2023/05/19 05:53:55;;;;;;;5.72;2.40;;;14.10;86.80;;;;;;4988095;28;20432;-54
2023/05/19 05:56:20;;;;;;;4.55;2.35;;;14.10;86.80;;;;;;4986521;28;20502;-54
2023/05/19 05:58:46;;;;;;;5.10;2.95;;;14.00;86.70;;;;;;4987453;28;20026;-54
2023/05/19 06:01:12;;;;;;;5.85;2.42;;;14.10;86.70;;;;;;4986470;28;20035;-54
2023/05/19 06:03:39;;;;;;;4.85;2.90;;;14.00;86.70;;;;;;4970186;28;20043;-54
2023/05/19 06:06:05;;;;;;;3.13;2.22;;;14.10;86.80;;;;;;4986418;28;20178;-54
2023/05/19 06:08:30;;;;;;;3.47;2.25;;;14.00;86.80;;;;;;4986176;28;20030;-54
2023/05/19 06:10:59;;;;;;;9.85;2.47;;;14.00;86.70;;;;;;4966702;28;20094;-54
2023/05/19 06:13:24;;;;;;;4.95;2.42;;;14.00;86.80;;;;;;5008468;28;20023;-54
2023/05/19 06:15:50;;;;;;;4.28;2.67;;;14.00;86.80;;;;;;4987835;28;20039;-54
2023/05/19 06:18:16;;;;;;;6.20;2.20;;;14.00;86.90;;;;;;4985183;28;20340;-54
2023/05/19 06:20:41;;;;;;;3.53;2.40;;;14.00;86.90;;;;;;4986848;28;20037;-54
2023/05/19 06:23:07;;;;;;;4.63;2.45;;;14.00;86.80;;;;;;4986344;28;20027;-54
2023/05/19 06:25:33;;;;;;;4.15;2.40;;;14.00;86.90;;;;;;4986953;28;20094;-54
2023/05/19 06:27:58;;;;;;;3.40;2.75;;;14.00;86.80;;;;;;4987001;28;20038;-54
2023/05/19 06:30:24;;;;;;;3.67;2.38;;;14.00;86.80;;;;;;4985864;28;20050;-54
2023/05/19 06:32:49;;;;;;;5.30;2.85;;;14.00;86.80;;;;;;4985888;28;20031;-54
2023/05/19 06:35:15;;;;;;;3.95;2.15;;;14.00;86.70;;;;;;4986348;28;20023;-54
2023/05/19 06:37:40;;;;;;;3.55;2.53;;;13.90;86.70;;;;;;5018213;28;20747;-54
2023/05/19 06:40:07;;;;;;;3.85;2.30;;;13.90;86.80;;;;;;5001836;28;20137;-54
2023/05/19 06:42:32;;;;;;;4.47;2.22;;;14.00;86.70;;;;;;4985323;28;20033;-54
2023/05/19 06:44:58;;;;;;;4.25;2.75;;;13.90;86.80;;;;;;4985812;28;20039;-54
2023/05/19 06:47:23;;;;;;;3.40;2.33;;;13.90;86.70;;;;;;4985110;28;20039;-54
2023/05/19 06:49:49;;;;;;;4.35;2.20;;;13.90;86.70;;;;;;4986494;28;20023;-54
2023/05/19 06:52:15;;;;;;;3.63;2.35;;;13.90;86.80;;;;;;4985781;28;20401;-54
2023/05/19 06:54:41;;;;;;;6.85;2.63;;;13.90;86.80;;;;;;4984539;28;20039;-54
2023/05/19 06:57:06;;;;;;;3.53;2.20;;;13.90;86.80;;;;;;4985615;28;20062;-54
2023/05/19 06:59:32;;;;;;;5.75;2.10;;;13.90;86.80;;;;;;4985265;28;20512;-54
2023/05/19 07:01:58;;;;;;;5.70;2.40;;;13.90;86.70;;;;;;4985215;28;20030;-54
2023/05/19 07:04:23;;;;;;;3.60;2.53;;;13.90;86.70;;;;;;4984641;28;20419;-54
2023/05/19 07:06:49;;;;;;;2.95;2.22;;;13.90;86.80;;;;;;4985007;28;20027;-54
2023/05/19 07:09:15;;;;;;;4.32;2.40;;;13.90;86.70;;;;;;4984252;28;20599;-53
2023/05/19 07:11:40;;;;;;;6.25;2.85;;;13.90;86.70;;;;;;4985568;28;20038;-54
2023/05/19 07:14:06;;;;;;;3.05;1.98;;;13.90;86.70;;;;;;4983846;28;20078;-54
2023/05/19 07:16:31;;;;;;;4.10;2.70;;;13.90;86.70;;;;;;4986133;28;20039;-54
2023/05/19 07:18:57;;;;;;;3.38;2.38;;;13.90;86.60;;;;;;4985414;28;20039;-54
2023/05/19 07:21:22;;;;;;;3.42;2.33;;;13.90;86.70;;;;;;4986669;28;20038;-54
2023/05/19 07:23:48;;;;;;;3.95;2.30;;;13.90;87.30;;;;;;4999868;28;20038;-54
2023/05/19 07:26:13;;;;;;;3.75;2.67;;;13.90;86.60;;;;;;4986184;28;20110;-54
2023/05/19 07:28:39;;;;;;;8.27;2.55;;;13.90;86.60;;;;;;4984443;28;20035;-54
2023/05/19 07:31:05;;;;;;;3.15;2.30;;;13.90;86.60;;;;;;4983506;28;20037;-53
2023/05/19 07:33:30;;;;;;;3.03;2.30;;;14.00;86.50;;;;;;4986114;28;20094;-54
2023/05/19 07:35:56;;;;;;;3.00;2.30;;;14.00;86.50;;;;;;4984652;28;20443;-54
2023/05/19 07:38:21;;;;;;;3.33;2.28;;;14.00;86.40;;;;;;4984311;28;20046;-54
2023/05/19 07:40:47;;;;;;;3.17;2.00;;;14.00;86.50;;;;;;4983441;28;20035;-54
2023/05/19 07:43:13;;;;;;;3.15;2.30;;;14.00;86.40;;;;;;4985962;28;20114;-54
2023/05/19 07:45:38;;;;;;;4.63;2.80;;;14.00;86.30;;;;;;4984631;28;20027;-53
2023/05/19 07:48:04;;;;;;;3.55;2.60;;;14.00;86.20;;;;;;4983311;28;20066;-54
2023/05/19 07:50:29;;;;;;;4.28;2.33;;;14.10;86.30;;;;;;4983987;28;20038;-54
2023/05/19 07:52:55;;;;;;;4.63;2.78;;;14.10;86.90;;;;;;5016274;28;20034;-54
2023/05/19 07:55:22;;;;;;;5.22;2.60;;;14.10;86.20;;;;;;4984355;28;20456;-54
2023/05/19 07:57:48;;;;;;;2.95;2.60;;;14.20;86.20;;;;;;4984993;28;20034;-54
2023/05/19 08:00:14;;;;;;;8.65;3.00;;;14.20;86.10;;;;;;4980675;28;20118;-54
2023/05/19 08:02:40;;;;;;;8.38;2.53;;;14.20;86.10;;;;;;5005545;28;20551;-54
2023/05/19 08:05:06;;;;;;;3.35;2.33;;;14.20;86.20;;;;;;4997250;28;20190;-54
2023/05/19 08:07:31;;;;;;;5.65;3.10;;;14.20;86.10;;;;;;4967572;28;20031;-54
2023/05/19 08:09:57;;;;;;;10.20;2.97;;;14.30;86.30;;;;;;4980645;28;20054;-54
2023/05/19 08:12:23;;;;;;;10.60;2.67;;;14.20;86.60;;;;;;4979812;28;20031;-54
2023/05/19 08:14:48;;;;;;;3.83;2.85;;;14.30;86.60;;;;;;4980729;28;20035;-54
2023/05/19 08:17:14;;;;;;;4.38;2.58;;;14.30;86.30;;;;;;4982692;28;20038;-54
2023/05/19 08:19:39;;;;;;;5.57;3.05;;;14.40;86.30;;;;;;5011240;28;20133;-54
2023/05/19 08:22:05;;;;;;;22.02;3.50;;;14.40;86.20;;;;;;5011569;28;20148;-52
2023/05/19 08:24:32;;;;;;;10.63;3.90;;;14.40;86.20;;;;;;4982182;28;20039;-54
2023/05/19 08:26:58;;;;;;;7.75;2.92;;;14.40;86.20;;;;;;4984370;28;20031;-54
2023/05/19 08:29:23;;;;;;;13.63;2.90;;;14.40;86.20;;;;;;4985308;28;20097;-54
2023/05/19 08:31:49;;;;;;;11.15;3.95;;;14.40;86.10;;;;;;4981702;28;20031;-54
2023/05/19 08:34:14;;;;;;;5.72;3.00;;;14.40;86.10;;;;;;4978327;28;20026;-54
2023/05/19 08:36:40;;;;;;;13.32;3.47;;;14.40;85.90;;;;;;4980558;28;20038;-54
2023/05/19 08:39:06;;;;;;;15.05;3.50;;;14.50;86.10;;;;;;4996790;28;20033;-54
2023/05/19 08:41:31;;;;;;;14.35;3.45;;;14.50;86.10;;;;;;4983359;28;20026;-54
2023/05/19 08:43:57;;;;;;;26.70;5.00;;;14.50;86.00;;;;;;4984251;28;20027;-54
2023/05/19 08:46:24;;;;;;;20.42;5.28;;;14.50;86.20;;;;;;4982329;28;20027;-54
2023/05/19 08:48:52;;;;;;;44.05;6.00;;;14.50;86.20;;;;;;4965293;28;20484;-54
2023/05/19 08:51:26;;;;;;;49.75;6.38;;;14.60;86.30;;;;;;4983101;28;20034;-54
2023/05/19 08:53:54;;;;;;;35.25;6.38;;;14.60;86.30;;;;;;4985440;28;20054;-54
2023/05/19 08:56:21;;;;;;;31.15;5.72;;;14.70;86.70;;;;;;4976869;28;20026;-54
2023/05/19 08:58:47;;;;;;;45.03;7.28;;;14.70;86.40;;;;;;4982378;28;20035;-55
2023/05/19 09:01:15;;;;;;;48.42;7.80;;;14.70;86.30;;;;;;5011771;28;20046;-54
2023/05/19 09:03:41;;;;;;;51.13;7.95;;;14.70;86.40;;;;;;4979835;28;20039;-54
2023/05/19 09:06:13;;;;;;;50.92;8.90;;;14.70;86.40;;;;;;4941022;28;20111;-54
2023/05/19 09:08:41;;;;;;;65.18;10.13;;;14.80;86.80;;;;;;4977020;28;20046;-54
2023/05/19 09:11:08;;;;;;;38.75;8.02;;;14.80;86.70;;;;;;4975095;28;20122;-54
2023/05/19 09:13:34;;;;;;;72.28;10.70;;;14.80;86.60;;;;;;4976048;28;20038;-54
2023/05/19 09:15:59;;;;;;;65.40;10.35;;;14.80;86.60;;;;;;4972452;28;20042;-54
2023/05/19 09:18:25;;;;;;;81.22;11.45;;;14.90;86.70;;;;;;4975899;28;20057;-54
2023/05/19 09:20:58;;;;;;;67.88;11.35;;;14.90;86.60;;;;;;4975075;28;20035;-54
2023/05/19 09:23:23;;;;;;;76.80;12.45;;;14.90;86.50;;;;;;4972493;28;20114;-54
2023/05/19 09:25:49;;;;;;;88.47;14.05;;;14.90;86.50;;;;;;4941860;28;20069;-53
2023/05/19 09:28:32;;;;;;;89.35;12.45;;;15.00;86.70;;;;;;4958654;28;20050;-54
2023/05/19 09:31:07;;;;;;;83.97;12.05;;;15.00;86.80;;;;;;4977482;28;20031;-54
2023/05/19 09:33:36;;;;;;;69.72;12.40;;;15.00;86.80;;;;;;4977745;28;20023;-54
2023/05/19 09:36:04;;;;;;;76.53;11.52;;;15.00;86.70;;;;;;4961898;28;20082;-54
2023/05/19 09:38:30;;;;;;;600.33;78.90;;;15.00;86.60;;;;;;4977981;28;20074;-54
2023/05/19 09:40:56;;;;;;;199.63;25.42;;;15.10;86.70;;;;;;4977388;28;20031;-54
2023/05/19 09:43:22;;;;;;;574.10;67.95;;;15.10;86.60;;;;;;4962625;28;20084;-54
2023/05/19 09:45:48;;;;;;;256.10;30.63;;;15.10;86.80;;;;;;4977941;28;20376;-54
2023/05/19 09:48:14;;;;;;;123.70;15.93;;;15.10;86.80;;;;;;4977182;28;20034;-54
2023/05/19 09:50:42;;;;;;;114.63;15.48;;;15.20;86.50;;;;;;4976526;28;20034;-54
2023/05/19 09:53:09;;;;;;;137.30;16.50;;;15.20;86.40;;;;;;4976396;28;20154;-54
2023/05/19 09:55:34;;;;;;;255.23;26.15;;;15.30;86.30;;;;;;4963763;28;20027;-54
2023/05/19 09:58:02;;;;;;;158.85;22.17;;;15.30;86.30;;;;;;4961765;28;20500;-54
2023/05/19 10:00:28;;;;;;;213.23;27.52;;;15.40;86.20;;;;;;4960945;28;20031;-54
2023/05/19 10:02:54;;;;;;;142.43;19.88;;;15.40;86.00;;;;;;4961315;28;20126;-54
2023/05/19 10:05:20;;;;;;;105.57;15.80;;;15.40;86.00;;;;;;4992262;28;20046;-54
2023/05/19 10:07:48;;;;;;;126.88;15.98;;;15.50;85.90;;;;;;4980100;28;20146;-54
2023/05/19 10:10:14;;;;;;;87.70;14.20;;;15.50;85.90;;;;;;4978710;28;20030;-54
2023/05/19 10:12:40;;;;;;;76.07;13.13;;;15.50;85.70;;;;;;4979884;28;20031;-56
2023/05/19 10:15:10;;;;;;;114.40;13.95;;;15.50;85.50;;;;;;4945141;28;20026;-54
2023/05/19 10:17:37;;;;;;;109.78;15.25;;;15.60;85.40;;;;;;4961850;28;20485;-54
2023/05/19 10:20:05;;;;;;;109.68;15.98;;;15.60;85.40;;;;;;4979031;28;20034;-54
2023/05/19 10:22:31;;;;;;;102.20;14.30;;;15.60;85.30;;;;;;4978585;28;20026;-54
2023/05/19 10:24:57;;;;;;;109.70;15.40;;;15.70;85.40;;;;;;4961497;28;20178;-54
2023/05/19 10:27:23;;;;;;;117.60;16.00;;;15.70;85.30;;;;;;4983288;28;20494;-54
2023/05/19 10:29:49;;;;;;;124.60;16.65;;;15.70;85.30;;;;;;4984104;28;20031;-54
2023/05/19 10:32:17;;;;;;;116.88;15.85;;;15.80;85.30;;;;;;4977602;28;20038;-54
2023/05/19 10:35:04;;;;;;;125.53;16.73;;;15.80;85.10;;;;;;4965658;28;20039;-54
2023/05/19 10:37:41;;;;;;;156.55;19.85;;;15.80;84.80;;;;;;4979753;28;20026;-54
2023/05/19 10:40:28;;;;;;;129.27;17.13;;;15.80;84.90;;;;;;4986402;28;20034;-54
2023/05/19 10:43:14;;;;;;;100.07;14.95;;;15.90;84.90;;;;;;4984213;28;20186;-54
2023/05/19 10:45:41;;;;;;;;;;;15.90;84.70;;;;;;5001356;28;20027;-54
2023/05/19 10:48:14;;;;;;;101.53;14.65;;;15.90;84.50;;;;;;5017646;28;20282;-54
2023/05/19 10:50:41;;;;;;;131.90;16.63;;;15.90;84.30;;;;;;4984440;28;20118;-54
2023/05/19 10:53:19;;;;;;;109.57;15.75;;;15.90;84.30;;;;;;4968672;28;20032;-54
2023/05/19 10:55:52;;;;;;;153.07;17.70;;;16.00;84.20;;;;;;4984789;28;20094;-54
2023/05/19 10:58:42;;;;;;;100.97;14.90;;;16.10;84.00;;;;;;4984976;28;20035;-54
2023/05/19 11:01:08;;;;;;;215.70;24.90;;;16.10;83.80;;;;;;5012651;28;20064;-54
2023/05/19 11:03:47;;;;;;;137.00;18.38;;;16.20;83.70;;;;;;4965524;28;20031;-54
2023/05/19 11:06:16;;;;;;;139.38;16.08;;;16.20;83.60;;;;;;4998996;28;20045;-54
2023/05/19 11:08:42;;;;;;;104.20;15.20;;;16.30;83.50;;;;;;4983528;28;20035;-54
2023/05/19 11:11:15;;;;;;;116.57;15.68;;;16.30;83.20;;;;;;4984560;28;20033;-54
2023/05/19 11:13:47;;;;;;;123.35;16.23;;;16.30;83.40;;;;;;4985594;28;20031;-54
2023/05/19 11:16:12;;;;;;;130.73;16.00;;;16.40;83.30;;;;;;4977484;28;20110;-54
2023/05/19 11:18:38;;;;;;;119.00;15.15;;;16.40;83.40;;;;;;4961407;28;20066;-54
2023/05/19 11:21:04;;;;;;;99.65;15.60;;;16.40;83.20;;;;;;5013956;28;20062;-54
2023/05/19 11:23:32;;;;;;;161.82;19.65;;;16.50;83.20;;;;;;4996430;28;20031;-54
2023/05/19 11:25:58;;;;;;;167.15;18.40;;;16.60;83.10;;;;;;4981629;28;20097;-54
2023/05/19 11:28:28;;;;;;;133.40;16.02;;;16.60;83.70;;;;;;4976183;28;20639;-54
2023/05/19 11:30:56;;;;;;;156.60;19.77;;;16.60;83.00;;;;;;4982355;28;20043;-54
2023/05/19 11:33:25;;;;;;;176.57;21.42;;;16.70;82.90;;;;;;4976780;28;20059;-54
2023/05/19 11:35:52;;;;;;;137.70;16.88;;;16.70;82.80;;;;;;4983129;28;20038;-54
2023/05/19 11:38:17;;;;;;;105.93;16.85;;;16.80;82.50;;;;;;4980599;28;20035;-54
2023/05/19 11:40:43;;;;;;;107.15;14.00;;;16.90;82.30;;;;;;4978638;28;20041;-54
2023/05/19 11:43:09;;;;;;;118.15;14.15;;;16.90;82.00;;;;;;4979919;28;20029;-54
2023/05/19 11:45:34;;;;;;;110.13;15.13;;;16.90;82.50;;;;;;4981372;28;20066;-54
2023/05/19 11:48:01;;;;;;;102.43;14.23;;;16.90;81.60;;;;;;4976789;28;20054;-54
2023/05/19 11:50:27;;;;;;;116.63;15.57;;;17.00;81.50;;;;;;4984063;28;20050;-54
2023/05/19 11:52:56;;;;;;;119.15;16.10;;;17.00;81.30;;;;;;4983027;28;20031;-54
2023/05/19 11:55:22;;;;;;;140.45;19.38;;;17.10;81.30;;;;;;4986554;28;20033;-54
2023/05/19 11:57:58;;;;;;;117.60;17.38;;;17.10;81.10;;;;;;4985617;28;20035;-54
2023/05/19 12:00:29;;;;;;;99.95;14.93;;;17.20;81.10;;;;;;5009205;28;20047;-54
2023/05/19 12:02:55;;;;;;;129.80;16.30;;;17.30;80.80;;;;;;4977718;28;20035;-54
2023/05/19 12:05:21;;;;;;;85.60;13.18;;;17.30;80.40;;;;;;4957867;28;20041;-54
2023/05/19 12:07:49;;;;;;;88.95;13.55;;;17.40;80.10;;;;;;4983030;28;20194;-54
2023/05/19 12:10:16;;;;;;;97.75;14.30;;;17.40;80.10;;;;;;5010475;28;20029;-54
2023/05/19 12:12:44;;;;;;;77.22;11.23;;;17.40;80.10;;;;;;4966649;28;20035;-54
2023/05/19 12:15:10;;;;;;;95.82;14.13;;;17.50;79.80;;;;;;4983252;28;20050;-54
2023/05/19 12:17:35;;;;;;;255.80;28.83;;;17.50;79.80;;;;;;4962676;28;20467;-54
2023/05/19 12:20:01;;;;;;;105.65;17.08;;;17.50;80.10;;;;;;4973635;28;20045;-54
2023/05/19 12:22:27;;;;;;;126.15;17.35;;;17.60;79.90;;;;;;4964787;28;20117;-54
2023/05/19 12:24:52;;;;;;;117.97;15.40;;;17.60;79.60;;;;;;4982259;28;20031;-54
2023/05/19 12:27:27;;;;;;;161.02;18.00;;;17.70;79.30;;;;;;4982594;28;20045;-54
2023/05/19 12:29:54;;;;;;;156.43;19.88;;;17.70;79.50;;;;;;4978762;28;20023;-54
2023/05/19 12:32:26;;;;;;;123.03;17.15;;;17.80;79.70;;;;;;4983634;28;20098;-54
2023/05/19 12:34:52;;;;;;;294.90;37.10;;;17.80;79.50;;;;;;4987633;28;20483;-54
2023/05/19 12:37:18;;;;;;;140.63;17.63;;;17.90;79.20;;;;;;4969820;28;20127;-54
2023/05/19 12:39:43;;;;;;;107.68;14.35;;;18.00;79.10;;;;;;4981269;28;20035;-54